Time;durP1;ratioP1;P1;durP2;ratioP2;P2;SDS_P1;SDS_P2;PMS_P1;PMS_P2;Temp;Humidity;BMP_temperature;BMP_pressure;BME280_temperature;BME280_humidity;BME280_pressure;Samples;Min_cycle;Max_cycle;Signal;HPM_P1;HPM_P2
2022/10/02 00:00:35;;;;;;;0.50;0.50;;;;;;;12.20;88.53;101167.63;2107762;28;20070;-69
2022/10/02 00:01:53;;;;;;;0.50;0.50;;;;;;;12.16;88.07;101166.72;2108043;28;20055;-69
2022/10/02 00:03:00;;;;;;;0.50;0.50;;;;;;;12.19;88.12;101170.66;2109295;28;21761;-69
2022/10/02 00:04:04;;;;;;;0.60;0.60;;;;;;;12.19;88.03;101179.59;2107937;28;20085;-69
2022/10/02 00:05:11;;;;;;;0.50;0.50;;;;;;;12.17;88.39;101170.22;2107259;28;20051;-69
2022/10/02 00:06:20;;;;;;;0.50;0.50;;;;;;;12.19;88.34;101174.16;2107626;28;20494;-69
2022/10/02 00:07:30;;;;;;;0.50;0.50;;;;;;;12.18;88.63;101172.56;2107056;28;20055;-69
2022/10/02 00:08:37;;;;;;;0.50;0.50;;;;;;;12.18;88.47;101174.50;2108982;28;20052;-69
2022/10/02 00:09:45;;;;;;;0.60;0.60;;;;;;;12.17;88.57;101176.41;2106498;28;20063;-69
2022/10/02 00:10:53;;;;;;;0.50;0.50;;;;;;;12.17;88.88;101176.41;2108427;28;20071;-69
2022/10/02 00:11:58;;;;;;;0.57;0.57;;;;;;;12.18;88.45;101179.94;2108354;28;20057;-69
2022/10/02 00:13:05;;;;;;;0.60;0.60;;;;;;;12.18;88.66;101177.97;2108915;28;20123;-69
2022/10/02 00:14:11;;;;;;;0.50;0.50;;;;;;;12.17;88.62;101179.13;2108128;28;21008;-69
2022/10/02 00:15:17;;;;;;;0.50;0.50;;;;;;;12.17;88.84;101181.03;2108220;28;20051;-69
2022/10/02 00:16:26;;;;;;;0.50;0.50;;;;;;;12.17;89.01;101181.03;2108192;28;20062;-69
2022/10/02 00:17:36;;;;;;;0.50;0.50;;;;;;;12.16;89.06;101182.19;2109515;28;20123;-69
2022/10/02 00:18:39;;;;;;;0.50;0.50;;;;;;;12.14;89.22;101182.53;2108473;28;20052;-69
2022/10/02 00:19:42;;;;;;;0.50;0.50;;;;;;;12.16;89.35;101176.75;2108107;28;20474;-69
2022/10/02 00:20:54;;;;;;;0.50;0.50;;;;;;;12.16;89.17;101177.56;2108265;28;20047;-69
2022/10/02 00:22:11;;;;;;;0.60;0.60;;;;;;;12.13;89.21;101183.63;2108492;28;20059;-69
2022/10/02 00:23:21;;;;;;;0.50;0.50;;;;;;;12.15;89.36;101181.38;2106183;28;20056;-69
2022/10/02 00:24:31;;;;;;;0.50;0.50;;;;;;;12.16;89.41;101185.69;2108219;28;20400;-69
2022/10/02 00:25:41;;;;;;;0.50;0.50;;;;;;;12.13;89.65;101189.03;2108318;28;20059;-69
2022/10/02 00:26:51;;;;;;;0.50;0.50;;;;;;;12.13;89.66;101186.34;2106832;28;20044;-69
2022/10/02 00:28:11;;;;;;;0.50;0.50;;;;;;;12.12;89.38;101186.69;2107920;28;20138;-69
2022/10/02 00:29:31;;;;;;;0.47;0.47;;;;;;;12.08;89.81;101181.97;2107453;28;20071;-69
2022/10/02 00:30:41;;;;;;;0.50;0.50;;;;;;;12.08;89.95;101186.59;2107397;28;20059;-68
2022/10/02 00:31:55;;;;;;;0.50;0.50;;;;;;;12.08;89.91;101192.00;2108313;28;20522;-68
2022/10/02 00:33:10;;;;;;;0.50;0.50;;;;;;;12.09;89.93;101185.47;2107172;28;20801;-68
2022/10/02 00:34:25;;;;;;;0.40;0.40;;;;;;;12.07;89.72;101191.22;2106893;28;20495;-68
2022/10/02 00:35:49;;;;;;;0.50;0.50;;;;;;;12.07;90.02;101191.22;2109134;28;20507;-68
2022/10/02 00:37:03;;;;;;;0.50;0.50;;;;;;;12.05;90.28;101189.97;2102629;28;20070;-68
2022/10/02 00:38:19;;;;;;;0.50;0.50;;;;;;;12.04;90.19;101188.41;2108590;28;20051;-68
2022/10/02 00:39:33;;;;;;;0.50;0.50;;;;;;;12.06;89.84;101188.84;2110541;28;20407;-68
2022/10/02 00:40:46;;;;;;;0.40;0.40;;;;;;;12.04;90.02;101199.22;2111358;27;20051;-68
2022/10/02 00:42:21;;;;;;;0.50;0.50;;;;;;;12.00;89.94;101190.22;2110545;28;20051;-68
2022/10/02 00:43:33;;;;;;;0.60;0.60;;;;;;;11.99;90.28;101199.44;2109585;28;20133;-68
2022/10/02 00:45:01;;;;;;;0.50;0.50;;;;;;;11.95;90.23;101193.16;2111398;28;20055;-68
2022/10/02 00:46:25;;;;;;;0.50;0.50;;;;;;;11.96;89.86;101194.72;2110847;28;20075;-68
2022/10/02 00:47:39;;;;;;;0.60;0.60;;;;;;;11.97;89.90;101190.91;2109021;28;20047;-68
2022/10/02 00:48:49;;;;;;;0.50;0.50;;;;;;;11.98;89.86;101206.00;2109864;28;20051;-69
2022/10/02 00:50:03;;;;;;;0.40;0.40;;;;;;;11.97;89.87;101199.03;2111756;28;20051;-68
2022/10/02 00:51:13;;;;;;;0.40;0.40;;;;;;;11.98;90.05;101200.59;2109612;28;20056;-68
2022/10/02 00:52:31;;;;;;;0.50;0.50;;;;;;;11.96;90.13;101200.13;2110230;28;20055;-69
2022/10/02 00:53:49;;;;;;;0.50;0.50;;;;;;;11.95;90.16;101201.28;2109165;27;20066;-68
2022/10/02 00:55:07;;;;;;;0.50;0.50;;;;;;;11.94;89.90;101202.38;2108850;28;20047;-68
2022/10/02 00:56:23;;;;;;;0.50;0.50;;;;;;;11.94;89.95;101205.09;2109952;28;20529;-69
2022/10/02 00:57:40;;;;;;;0.50;0.50;;;;;;;11.92;90.05;101212.78;2110164;28;20044;-69
2022/10/02 00:58:59;;;;;;;0.50;0.50;;;;;;;11.90;90.37;101212.31;2109341;28;20055;-69
2022/10/02 01:00:07;;;;;;;0.50;0.50;;;;;;;11.89;90.46;101211.53;2108407;28;20415;-68
2022/10/02 01:01:16;;;;;;;0.50;0.50;;;;;;;11.89;90.72;101203.41;2109649;28;20052;-68
2022/10/02 01:02:42;;;;;;;0.50;0.50;;;;;;;11.87;90.12;101211.09;2109653;28;20044;-69
2022/10/02 01:03:52;;;;;;;0.50;0.50;;;;;;;11.90;89.49;101215.03;2108933;28;20749;-69
2022/10/02 01:04:54;;;;;;;0.50;0.50;;;;;;;11.88;90.12;101212.66;2109189;28;20048;-69
2022/10/02 01:05:57;;;;;;;0.40;0.40;;;;;;;11.89;90.21;101216.16;2109910;28;20056;-69
2022/10/02 01:06:59;;;;;;;0.50;0.50;;;;;;;11.90;90.27;101215.03;2108947;28;20058;-69
2022/10/02 01:08:02;;;;;;;0.50;0.50;;;;;;;11.89;90.50;101214.22;2102216;28;20055;-69
2022/10/02 01:09:04;;;;;;;0.50;0.50;;;;;;;11.94;90.10;101218.63;2110961;28;20063;-69
2022/10/02 01:10:09;;;;;;;0.50;0.50;;;;;;;11.94;90.15;101210.50;2108447;28;20422;-69
2022/10/02 01:11:12;;;;;;;0.50;0.50;;;;;;;11.94;90.59;101213.19;2109516;28;20059;-69
2022/10/02 01:12:15;;;;;;;0.50;0.50;;;;;;;11.95;90.00;101222.91;2110244;28;20060;-69
2022/10/02 01:13:17;;;;;;;0.50;0.50;;;;;;;11.94;90.24;101213.19;2108289;28;20051;-69
2022/10/02 01:14:20;;;;;;;0.50;0.50;;;;;;;11.94;90.28;101218.63;2108288;28;20055;-69
2022/10/02 01:15:27;;;;;;;0.50;0.50;;;;;;;11.96;90.17;101224.47;2107342;28;20446;-69
2022/10/02 01:16:31;;;;;;;0.50;0.50;;;;;;;11.95;90.10;101223.72;2100478;28;20055;-69
2022/10/02 01:17:33;;;;;;;0.60;0.60;;;;;;;11.95;90.20;101228.34;2109888;28;20048;-69
2022/10/02 01:18:38;;;;;;;0.50;0.50;;;;;;;11.95;89.90;101228.34;2109270;28;20112;-69
2022/10/02 01:19:41;;;;;;;0.50;0.50;;;;;;;11.96;90.33;101227.19;2109590;28;20059;-69
2022/10/02 01:20:47;;;;;;;0.50;0.50;;;;;;;11.97;90.08;101231.50;2109115;28;20040;-69
2022/10/02 01:21:52;;;;;;;0.50;0.50;;;;;;;11.98;90.23;101222.25;2109705;28;20128;-69
2022/10/02 01:23:05;;;;;;;0.45;0.45;;;;;;;11.98;90.05;101219.53;2108854;28;20056;-69
2022/10/02 01:24:14;;;;;;;0.50;0.50;;;;;;;11.99;90.24;101221.09;2108421;28;20056;-70
2022/10/02 01:25:18;;;;;;;0.50;0.50;;;;;;;11.99;90.13;101218.41;2108262;28;20063;-69
2022/10/02 01:26:20;;;;;;;0.40;0.40;;;;;;;12.00;89.75;101214.56;2109519;28;20060;-69
2022/10/02 01:27:24;;;;;;;0.50;0.50;;;;;;;12.00;89.87;101217.28;2110752;28;20449;-69
2022/10/02 01:28:27;;;;;;;0.50;0.50;;;;;;;11.99;89.83;101212.97;2109599;28;20063;-69
2022/10/02 01:29:29;;;;;;;0.50;0.50;;;;;;;11.99;89.71;101218.41;2109230;28;20149;-69
2022/10/02 01:30:34;;;;;;;0.50;0.50;;;;;;;11.99;90.01;101216.47;2109495;28;20044;-69
2022/10/02 01:31:38;;;;;;;0.50;0.50;;;;;;;11.99;90.19;101219.19;2108818;28;20056;-69
2022/10/02 01:32:44;;;;;;;0.50;0.50;;;;;;;12.00;90.03;101217.28;2109203;28;20091;-69
2022/10/02 01:33:48;;;;;;;0.50;0.50;;;;;;;11.99;89.93;101212.97;2109439;28;20047;-69
2022/10/02 01:34:51;;;;;;;0.40;0.40;;;;;;;11.99;89.86;101218.41;2109031;28;20055;-69
2022/10/02 01:35:54;;;;;;;0.50;0.50;;;;;;;11.99;90.09;101221.09;2108759;28;20051;-69
2022/10/02 01:36:56;;;;;;;0.50;0.50;;;;;;;11.99;90.14;101221.91;2109881;28;20514;-69
2022/10/02 01:38:01;;;;;;;0.50;0.50;;;;;;;12.01;90.11;101227.75;2107963;28;20078;-69
2022/10/02 01:39:05;;;;;;;0.50;0.50;;;;;;;11.99;89.71;101227.31;2109292;28;20059;-69
2022/10/02 01:40:21;;;;;;;0.50;0.50;;;;;;;11.99;89.66;101224.59;2110571;28;20048;-69
2022/10/02 01:41:25;;;;;;;0.40;0.40;;;;;;;11.97;89.96;101224.16;2110076;28;20044;-69
2022/10/02 01:42:28;;;;;;;0.40;0.40;;;;;;;11.97;90.21;101226.84;2108255;28;20051;-69
2022/10/02 01:43:34;;;;;;;0.50;0.50;;;;;;;11.98;90.01;101225.75;2109838;27;20067;-69
2022/10/02 01:44:36;;;;;;;0.50;0.50;;;;;;;11.97;90.01;101221.44;2110812;28;20146;-69
2022/10/02 01:45:59;;;;;;;0.45;0.45;;;;;;;11.98;89.90;101230.34;2108493;28;20531;-69
2022/10/02 01:47:07;;;;;;;0.50;0.50;;;;;;;11.96;90.08;101227.19;2101952;28;20062;-69
2022/10/02 01:48:18;;;;;;;0.57;0.57;;;;;;;11.95;89.84;101223.72;2111465;28;20118;-68
2022/10/02 01:49:38;;;;;;;0.50;0.50;;;;;;;11.92;89.99;101226.31;2108160;27;20783;-68
2022/10/02 01:50:53;;;;;;;0.50;0.50;;;;;;;11.90;89.77;101223.94;2109199;28;20052;-68
2022/10/02 01:52:12;;;;;;;0.50;0.50;;;;;;;11.89;90.04;101221.56;2109171;28;20819;-68
2022/10/02 01:53:24;;;;;;;0.50;0.50;;;;;;;11.89;89.93;101229.69;2109199;28;20056;-68
2022/10/02 01:54:39;;;;;;;0.40;0.40;;;;;;;11.88;90.04;101230.81;2108888;28;20051;-69
2022/10/02 01:55:49;;;;;;;0.50;0.50;;;;;;;11.89;89.59;101222.34;2108866;28;20059;-68
2022/10/02 01:57:03;;;;;;;0.50;0.50;;;;;;;11.88;90.15;101225.38;2108282;28;20044;-69
2022/10/02 01:58:18;;;;;;;0.50;0.50;;;;;;;11.86;89.81;101222.25;2107635;28;20503;-69
2022/10/02 01:59:33;;;;;;;0.50;0.50;;;;;;;11.84;90.31;101227.97;2109685;28;20048;-68
2022/10/02 02:00:51;;;;;;;0.50;0.50;;;;;;;11.84;90.24;101216.41;2107817;28;20052;-68
2022/10/02 02:02:04;;;;;;;0.50;0.50;;;;;;;11.82;90.21;101221.34;2108133;28;20087;-68
2022/10/02 02:03:15;;;;;;;0.50;0.50;;;;;;;11.82;90.38;101218.63;2108772;28;20043;-69
2022/10/02 02:04:23;;;;;;;0.50;0.50;;;;;;;11.82;90.29;101216.72;2109013;27;21032;-68
2022/10/02 02:05:46;;;;;;;0.40;0.40;;;;;;;11.79;90.23;101211.22;2109330;28;20090;-68
2022/10/02 02:06:55;;;;;;;0.50;0.50;;;;;;;11.76;90.18;101218.09;2108578;28;20093;-69
2022/10/02 02:08:06;;;;;;;0.50;0.50;;;;;;;11.79;90.39;101212.00;2109747;28;20052;-68
2022/10/02 02:09:14;;;;;;;0.50;0.50;;;;;;;11.78;90.60;101215.03;2109924;28;20056;-68
2022/10/02 02:10:24;;;;;;;0.50;0.50;;;;;;;11.77;90.24;101213.44;2109177;28;20052;-68
2022/10/02 02:11:27;;;;;;;0.50;0.50;;;;;;;11.76;90.94;101218.09;2109836;28;20089;-68
2022/10/02 02:12:39;;;;;;;0.50;0.50;;;;;;;11.78;90.54;101217.75;2110178;28;20063;-68
2022/10/02 02:13:46;;;;;;;0.50;0.50;;;;;;;11.77;90.39;101214.25;2109412;28;20052;-68
2022/10/02 02:14:55;;;;;;;0.40;0.40;;;;;;;11.78;90.79;101220.47;2108891;28;20906;-68
2022/10/02 02:16:07;;;;;;;0.50;0.50;;;;;;;11.78;90.80;101215.03;2109498;28;20399;-68
2022/10/02 02:17:15;;;;;;;0.50;0.50;;;;;;;11.79;91.02;101217.41;2108662;28;20051;-68
2022/10/02 02:18:24;;;;;;;0.50;0.50;;;;;;;11.79;90.89;101206.59;2108109;28;20059;-69
2022/10/02 02:19:31;;;;;;;0.50;0.50;;;;;;;11.79;91.08;101205.78;2100137;28;20527;-69
2022/10/02 02:20:40;;;;;;;0.50;0.50;;;;;;;11.81;91.39;101217.06;2109096;28;20051;-68
2022/10/02 02:21:48;;;;;;;0.50;0.50;;;;;;;11.81;91.21;101217.06;2109452;28;20054;-68
2022/10/02 02:22:53;;;;;;;0.40;0.40;;;;;;;11.83;91.56;101222.91;2108160;28;20078;-68
2022/10/02 02:24:00;;;;;;;0.50;0.50;;;;;;;11.84;91.38;101219.88;2110483;28;20118;-68
2022/10/02 02:25:07;;;;;;;0.40;0.40;;;;;;;11.87;91.41;101224.63;2110041;28;20510;-68
2022/10/02 02:26:12;;;;;;;0.50;0.50;;;;;;;11.89;91.16;101224.28;2107279;28;20526;-69
2022/10/02 02:27:18;;;;;;;0.50;0.50;;;;;;;11.90;91.77;101223.94;2108370;28;20537;-68
2022/10/02 02:28:24;;;;;;;0.55;0.55;;;;;;;11.95;91.67;101236.44;2108049;28;20760;-68
2022/10/02 02:29:31;;;;;;;0.50;0.50;;;;;;;11.98;91.65;101224.94;2106982;28;20185;-68
2022/10/02 02:30:37;;;;;;;0.50;0.50;;;;;;;12.00;91.57;101233.53;2107541;28;20048;-68
2022/10/02 02:31:46;;;;;;;0.45;0.45;;;;;;;12.02;91.67;101239.34;2109381;28;20056;-68
2022/10/02 02:32:54;;;;;;;0.50;0.50;;;;;;;12.03;91.21;101239.00;2111049;28;20085;-68
2022/10/02 02:33:59;;;;;;;0.43;0.43;;;;;;;12.05;91.75;101238.69;2109492;28;20549;-68
2022/10/02 02:35:07;;;;;;;0.50;0.50;;;;;;;12.07;91.24;101241.84;2108197;28;20048;-68
2022/10/02 02:36:15;;;;;;;0.50;0.50;;;;;;;12.11;91.14;101244.66;2108302;28;20055;-68
2022/10/02 02:37:23;;;;;;;0.45;0.45;;;;;;;12.12;91.06;101244.31;2107835;27;20062;-69
2022/10/02 02:38:31;;;;;;;0.50;0.50;;;;;;;12.14;91.31;101236.66;2109476;28;20503;-68
2022/10/02 02:39:39;;;;;;;0.40;0.40;;;;;;;12.15;91.54;101243.63;2106091;28;20059;-68
2022/10/02 02:40:46;;;;;;;0.50;0.50;;;;;;;12.18;91.07;101248.38;2105866;28;20055;-67
2022/10/02 02:41:52;;;;;;;0.40;0.40;;;;;;;12.19;91.15;101249.16;2106211;28;20051;-67
2022/10/02 02:42:59;;;;;;;0.50;0.50;;;;;;;12.22;91.41;101246.56;2108555;28;20104;-67
2022/10/02 02:44:09;;;;;;;0.50;0.50;;;;;;;12.24;91.21;101249.69;2110103;28;20670;-68
2022/10/02 02:45:16;;;;;;;0.50;0.50;;;;;;;12.27;90.98;101254.47;2107343;28;20064;-68
2022/10/02 02:46:24;;;;;;;0.50;0.50;;;;;;;12.30;91.01;101253.78;2108549;28;20059;-68
2022/10/02 02:47:33;;;;;;;0.50;0.50;;;;;;;12.33;91.21;101249.59;2108489;28;20542;-68
2022/10/02 02:48:40;;;;;;;0.50;0.50;;;;;;;12.33;91.15;101250.38;2108727;28;20055;-68
2022/10/02 02:49:50;;;;;;;0.50;0.50;;;;;;;12.35;90.57;101244.63;2106992;28;20043;-68
2022/10/02 02:50:58;;;;;;;0.50;0.50;;;;;;;12.35;91.15;101250.84;2109026;28;20058;-68
2022/10/02 02:52:04;;;;;;;0.50;0.50;;;;;;;12.37;90.66;101247.78;2108374;28;20098;-68
2022/10/02 02:53:12;;;;;;;0.50;0.50;;;;;;;12.39;90.73;101256.34;2108670;28;20056;-68
2022/10/02 02:54:20;;;;;;;0.43;0.43;;;;;;;12.39;90.59;101256.34;2109839;28;20047;-68
2022/10/02 02:55:28;;;;;;;0.50;0.50;;;;;;;12.40;90.22;101250.56;2109897;28;20059;-68
2022/10/02 02:56:32;;;;;;;0.40;0.40;;;;;;;12.42;90.33;101255.66;2108579;28;20048;-68
2022/10/02 02:57:40;;;;;;;0.50;0.50;;;;;;;12.41;90.26;101252.16;2108849;28;20430;-69
2022/10/02 02:58:47;;;;;;;0.50;0.50;;;;;;;12.41;90.38;101251.38;2107847;28;20082;-69
2022/10/02 02:59:55;;;;;;;0.50;0.50;;;;;;;12.41;90.00;101246.75;2108997;28;20062;-68
2022/10/02 03:00:57;;;;;;;0.50;0.50;;;;;;;12.40;90.20;101258.69;2108656;28;20056;-68
2022/10/02 03:02:00;;;;;;;0.47;0.47;;;;;;;12.42;90.05;101259.16;2109489;28;20119;-68
2022/10/02 03:03:03;;;;;;;0.50;0.50;;;;;;;12.41;90.23;101257.59;2108115;28;20055;-68
2022/10/02 03:04:06;;;;;;;0.50;0.50;;;;;;;12.40;90.08;101258.69;2109529;28;20048;-68
2022/10/02 03:05:13;;;;;;;0.50;0.50;;;;;;;12.38;90.25;101258.28;2108535;28;20169;-68
2022/10/02 03:06:32;;;;;;;0.50;0.50;;;;;;;12.36;89.90;101257.81;2108474;28;20067;-68
2022/10/02 03:07:35;;;;;;;0.50;0.50;;;;;;;12.36;90.14;101257.03;2107547;28;20044;-68
2022/10/02 03:08:38;;;;;;;0.50;0.50;;;;;;;12.38;89.68;101252.84;2109869;28;20056;-68
2022/10/02 03:09:42;;;;;;;0.50;0.50;;;;;;;12.40;89.93;101264.09;2108875;28;20052;-68
2022/10/02 03:10:54;;;;;;;0.50;0.50;;;;;;;12.39;89.63;101254.41;2109074;28;20044;-68
2022/10/02 03:12:08;;;;;;;0.50;0.50;;;;;;;12.38;90.00;101255.56;2108974;28;20075;-68
2022/10/02 03:13:25;;;;;;;0.50;0.50;;;;;;;12.37;89.65;101258.63;2108225;28;20070;-68
2022/10/02 03:14:51;;;;;;;0.50;0.50;;;;;;;12.34;89.55;101260.06;2106286;28;20469;-68
2022/10/02 03:16:07;;;;;;;0.50;0.50;;;;;;;12.34;89.65;101267.38;2107416;28;20407;-69
2022/10/02 03:17:21;;;;;;;0.50;0.50;;;;;;;12.34;89.49;101262.78;2108157;28;20416;-69
2022/10/02 03:18:35;;;;;;;0.50;0.50;;;;;;;12.33;89.90;101258.50;2107991;28;20064;-68
2022/10/02 03:19:44;;;;;;;0.50;0.50;;;;;;;12.34;90.22;101260.06;2108963;28;20058;-68
2022/10/02 03:21:00;;;;;;;0.50;0.50;;;;;;;12.35;89.67;101255.44;2109252;28;20507;-69
2022/10/02 03:22:08;;;;;;;0.40;0.40;;;;;;;12.35;89.50;101244.63;2107368;28;20052;-68
2022/10/02 03:23:21;;;;;;;0.40;0.40;;;;;;;12.36;89.61;101252.41;2109950;28;20088;-68
2022/10/02 03:24:29;;;;;;;0.50;0.50;;;;;;;12.36;89.72;101257.81;2109049;28;20058;-68
2022/10/02 03:25:39;;;;;;;0.50;0.50;;;;;;;12.38;89.58;101260.19;2108737;28;20089;-68
2022/10/02 03:26:47;;;;;;;0.50;0.50;;;;;;;12.37;89.68;101264.81;2108114;28;20052;-68
2022/10/02 03:27:55;;;;;;;0.50;0.50;;;;;;;12.39;89.76;101273.38;2108860;28;20078;-68
2022/10/02 03:29:01;;;;;;;0.40;0.40;;;;;;;12.40;89.89;101269.53;2108755;28;20065;-68
2022/10/02 03:30:06;;;;;;;0.40;0.40;;;;;;;12.41;89.71;101265.72;2106947;28;20481;-69
2022/10/02 03:31:12;;;;;;;0.40;0.40;;;;;;;12.42;89.88;101267.28;2108065;28;20450;-69
2022/10/02 03:32:17;;;;;;;0.40;0.40;;;;;;;12.42;89.76;101266.47;2108247;28;20094;-69
2022/10/02 03:33:21;;;;;;;0.50;0.50;;;;;;;12.43;89.47;101271.56;2108594;28;20442;-69
2022/10/02 03:34:23;;;;;;;0.40;0.40;;;;;;;12.42;89.52;101269.97;2108820;28;20051;-68
2022/10/02 03:35:28;;;;;;;0.40;0.40;;;;;;;12.42;89.23;101269.97;2107121;28;20503;-69
2022/10/02 03:36:31;;;;;;;0.45;0.45;;;;;;;12.41;89.32;101273.84;2108389;28;20085;-68
2022/10/02 03:37:33;;;;;;;0.50;0.50;;;;;;;12.41;89.62;101276.53;2107965;28;20108;-68
2022/10/02 03:38:37;;;;;;;0.43;0.43;;;;;;;12.41;89.14;101276.53;2108452;28;20056;-68
2022/10/02 03:39:41;;;;;;;0.43;0.43;;;;;;;12.41;89.22;101275.75;2109345;28;20063;-68
2022/10/02 03:40:44;;;;;;;0.40;0.40;;;;;;;12.38;89.67;101271.81;2108870;28;20085;-68
2022/10/02 03:41:46;;;;;;;0.40;0.40;;;;;;;12.38;89.38;101277.22;2109482;28;20059;-69
2022/10/02 03:42:50;;;;;;;0.50;0.50;;;;;;;12.37;89.28;101274.88;2107516;28;20048;-68
2022/10/02 03:43:52;;;;;;;0.40;0.40;;;;;;;12.36;89.38;101274.06;2107946;28;20482;-67
2022/10/02 03:44:55;;;;;;;0.50;0.50;;;;;;;12.35;89.05;101285.22;2107374;28;20059;-68
2022/10/02 03:45:57;;;;;;;0.40;0.40;;;;;;;12.34;89.55;101280.94;2107973;28;20499;-68
2022/10/02 03:47:01;;;;;;;0.40;0.40;;;;;;;12.34;89.12;101280.94;2109796;28;20052;-68
2022/10/02 03:48:03;;;;;;;0.50;0.50;;;;;;;12.30;89.26;101275.44;2107927;28;20189;-68
2022/10/02 03:49:06;;;;;;;0.50;0.50;;;;;;;12.31;89.26;101285.13;2107909;28;20831;-68
2022/10/02 03:50:11;;;;;;;0.50;0.50;;;;;;;12.31;89.93;101284.31;2106811;28;20060;-68
2022/10/02 03:51:13;;;;;;;0.50;0.50;;;;;;;12.30;89.54;101286.25;2108699;28;20047;-67
2022/10/02 03:52:19;;;;;;;0.50;0.50;;;;;;;12.30;89.06;101280.84;2108804;28;20047;-69
2022/10/02 03:53:24;;;;;;;0.45;0.45;;;;;;;12.28;89.54;101280.38;2108672;28;20069;-69
2022/10/02 03:54:34;;;;;;;0.50;0.50;;;;;;;12.28;89.35;101288.50;2107785;28;20064;-69
2022/10/02 03:55:39;;;;;;;0.50;0.50;;;;;;;12.26;89.28;101284.59;2106801;28;20056;-68
2022/10/02 03:56:52;;;;;;;0.50;0.50;;;;;;;12.24;89.54;101292.25;2108181;28;20051;-69
2022/10/02 03:57:54;;;;;;;0.50;0.50;;;;;;;12.23;89.47;101291.44;2108627;28;20496;-69
2022/10/02 03:59:02;;;;;;;0.50;0.50;;;;;;;12.24;89.31;101297.66;2107238;28;20044;-68
2022/10/02 04:00:08;;;;;;;0.50;0.50;;;;;;;12.22;89.06;101300.72;2106649;28;20060;-68
2022/10/02 04:01:17;;;;;;;0.50;0.50;;;;;;;12.23;89.36;101299.56;2108398;28;20052;-69
2022/10/02 04:02:35;;;;;;;0.50;0.50;;;;;;;12.19;88.88;101306.00;2107143;28;20066;-68
2022/10/02 04:03:43;;;;;;;0.50;0.50;;;;;;;12.18;89.24;101299.78;2107907;28;20660;-69
2022/10/02 04:04:50;;;;;;;0.50;0.50;;;;;;;12.18;89.39;101307.16;2109025;28;20044;-69
2022/10/02 04:05:59;;;;;;;0.50;0.50;;;;;;;12.18;89.27;101307.91;2108857;28;20051;-68
2022/10/02 04:07:05;;;;;;;0.50;0.50;;;;;;;12.17;89.22;101302.84;2109171;28;20044;-69
2022/10/02 04:08:16;;;;;;;0.45;0.45;;;;;;;12.16;89.52;101307.47;2106946;28;20071;-69
2022/10/02 04:09:24;;;;;;;0.50;0.50;;;;;;;12.15;89.34;101300.47;2108583;28;20152;-69
2022/10/02 04:10:36;;;;;;;0.40;0.40;;;;;;;12.13;89.70;101305.44;2108466;28;20051;-69
2022/10/02 04:11:42;;;;;;;0.40;0.40;;;;;;;12.13;89.42;101305.44;2108358;28;20056;-68
2022/10/02 04:12:50;;;;;;;0.50;0.50;;;;;;;12.13;89.66;101308.13;2110344;28;20054;-68
2022/10/02 04:13:58;;;;;;;0.45;0.45;;;;;;;12.14;89.52;101311.63;2110010;28;20050;-68
2022/10/02 04:15:06;;;;;;;0.50;0.50;;;;;;;12.12;89.75;101309.28;2109693;28;20056;-69
2022/10/02 04:16:14;;;;;;;0.43;0.43;;;;;;;12.11;89.40;101305.00;2109508;28;20055;-68
2022/10/02 04:17:23;;;;;;;0.43;0.43;;;;;;;12.12;89.56;101305.78;2110309;28;21612;-68
2022/10/02 04:18:30;;;;;;;0.50;0.50;;;;;;;12.13;89.58;101308.13;2109426;28;20811;-68
2022/10/02 04:19:39;;;;;;;0.50;0.50;;;;;;;12.14;89.44;101311.63;2109853;28;20059;-68
2022/10/02 04:20:46;;;;;;;0.50;0.50;;;;;;;12.13;89.73;101308.13;2110357;28;20077;-69
2022/10/02 04:21:54;;;;;;;0.40;0.40;;;;;;;12.14;89.46;101309.72;2108983;28;20829;-69
2022/10/02 04:23:02;;;;;;;0.43;0.43;;;;;;;12.14;89.58;101308.94;2110124;28;20051;-69
2022/10/02 04:24:14;;;;;;;0.50;0.50;;;;;;;12.13;89.40;101307.38;2111199;28;20058;-68
2022/10/02 04:25:19;;;;;;;0.50;0.50;;;;;;;12.11;89.52;101299.59;2110129;28;20055;-68
2022/10/02 04:26:27;;;;;;;0.40;0.40;;;;;;;12.12;89.45;101306.56;2110254;28;20434;-68
2022/10/02 04:27:35;;;;;;;0.45;0.45;;;;;;;12.10;89.30;101314.22;2110041;28;20059;-68
2022/10/02 04:28:42;;;;;;;0.50;0.50;;;;;;;12.08;89.29;101305.69;2109212;28;20052;-68
2022/10/02 04:29:49;;;;;;;0.50;0.50;;;;;;;12.08;89.19;101303.75;2108924;28;20043;-68
2022/10/02 04:30:54;;;;;;;0.50;0.50;;;;;;;12.10;89.06;101316.16;2110810;28;20048;-69
2022/10/02 04:32:09;;;;;;;0.40;0.40;;;;;;;12.07;89.16;101310.28;2110295;28;20843;-68
2022/10/02 04:33:15;;;;;;;0.50;0.50;;;;;;;12.06;88.95;101313.34;2110294;28;20094;-68
2022/10/02 04:34:17;;;;;;;0.50;0.50;;;;;;;12.07;89.21;101312.19;2110421;28;20494;-68
2022/10/02 04:35:27;;;;;;;0.50;0.50;;;;;;;12.08;89.02;101316.50;2110054;28;20059;-67
2022/10/02 04:36:42;;;;;;;0.50;0.50;;;;;;;12.04;89.14;101315.59;2110187;28;20128;-69
2022/10/02 04:37:56;;;;;;;0.60;0.60;;;;;;;12.05;89.21;101325.28;2108233;28;20085;-69
2022/10/02 04:39:10;;;;;;;0.50;0.50;;;;;;;12.05;88.93;101325.28;2110001;28;20056;-69
2022/10/02 04:40:25;;;;;;;0.50;0.50;;;;;;;12.03;89.22;101324.84;2108799;27;20055;-69
2022/10/02 04:41:45;;;;;;;0.50;0.50;;;;;;;12.01;89.29;101327.09;2107836;28;20047;-69
2022/10/02 04:43:00;;;;;;;0.57;0.57;;;;;;;11.99;88.80;101321.22;2108460;28;20047;-68
2022/10/02 04:44:12;;;;;;;0.50;0.50;;;;;;;11.99;89.01;101332.84;2110445;28;20056;-69
2022/10/02 04:45:26;;;;;;;0.60;0.60;;;;;;;11.99;89.19;101326.63;2110724;28;20047;-68
2022/10/02 04:46:54;;;;;;;0.50;0.50;;;;;;;11.95;88.93;101334.66;2108805;28;20156;-69
2022/10/02 04:48:34;;;;;;;0.50;0.50;;;;;;;11.90;89.01;101342.19;2107511;28;20518;-68
2022/10/02 04:49:55;;;;;;;0.60;0.60;;;;;;;11.90;89.09;101344.91;2109384;28;20051;-69
2022/10/02 04:51:07;;;;;;;0.60;0.60;;;;;;;11.92;88.95;101335.31;2108983;28;20051;-69
2022/10/02 04:52:30;;;;;;;0.50;0.50;;;;;;;11.90;88.89;101342.19;2109920;28;20055;-69
2022/10/02 04:54:00;;;;;;;0.60;0.60;;;;;;;11.85;88.77;101328.88;2109672;28;20502;-69
2022/10/02 04:55:23;;;;;;;0.50;0.50;;;;;;;11.85;89.07;101337.00;2109618;28;20047;-69
2022/10/02 04:56:47;;;;;;;0.55;0.55;;;;;;;11.85;88.94;101334.28;2109029;28;20052;-69
2022/10/02 04:58:23;;;;;;;0.60;0.60;;;;;;;11.83;89.00;101337.34;2108709;28;20051;-69
2022/10/02 04:59:36;;;;;;;0.60;0.60;;;;;;;11.85;88.86;101334.28;2108560;28;20526;-69
2022/10/02 05:00:47;;;;;;;0.50;0.50;;;;;;;11.87;88.78;101338.25;2108850;28;20056;-69
2022/10/02 05:02:01;;;;;;;0.50;0.50;;;;;;;11.85;88.85;101340.50;2108241;27;20104;-69
2022/10/02 05:03:18;;;;;;;0.50;0.50;;;;;;;11.84;88.58;101335.44;2109672;28;20528;-69
2022/10/02 05:04:39;;;;;;;0.50;0.50;;;;;;;11.82;88.65;101343.88;2109483;28;20633;-69
2022/10/02 05:05:56;;;;;;;0.50;0.50;;;;;;;11.81;88.58;101330.69;2110010;28;20514;-69
2022/10/02 05:07:14;;;;;;;0.40;0.40;;;;;;;11.80;88.69;101335.31;2109030;28;20101;-69
2022/10/02 05:08:38;;;;;;;0.50;0.50;;;;;;;11.77;88.71;101337.88;2109251;28;20051;-69
2022/10/02 05:09:54;;;;;;;0.40;0.40;;;;;;;11.75;88.74;101334.72;2108981;28;20434;-69
2022/10/02 05:11:22;;;;;;;0.50;0.50;;;;;;;11.74;88.85;101338.56;2108691;28;20516;-70
2022/10/02 05:12:42;;;;;;;0.50;0.50;;;;;;;11.69;88.57;101330.66;2106915;27;20134;-68
2022/10/02 05:14:00;;;;;;;0.40;0.40;;;;;;;11.69;88.67;101341.47;2108939;28;20055;-69
2022/10/02 05:15:48;;;;;;;0.43;0.43;;;;;;;11.62;88.58;101349.34;2109683;28;20060;-69
2022/10/02 05:17:04;;;;;;;0.50;0.50;;;;;;;11.61;88.91;101342.31;2084599;28;20052;-69
2022/10/02 05:18:22;;;;;;;0.50;0.50;;;;;;;11.62;88.94;101346.63;2076113;28;20498;-69
2022/10/02 05:19:42;;;;;;;0.50;0.50;;;;;;;11.58;89.26;101345.69;2079186;28;20061;-70
2022/10/02 05:20:59;;;;;;;0.50;0.50;;;;;;;11.56;89.30;101329.81;2084283;28;20094;-69
2022/10/02 05:22:29;;;;;;;0.50;0.50;;;;;;;11.55;89.37;101340.97;2087249;28;20084;-68
2022/10/02 05:23:55;;;;;;;0.50;0.50;;;;;;;11.49;89.61;101337.69;2104674;28;20055;-69
2022/10/02 05:25:10;;;;;;;0.40;0.40;;;;;;;11.51;89.84;101337.38;2107988;28;20052;-68
2022/10/02 05:26:35;;;;;;;0.45;0.45;;;;;;;11.48;89.75;101338.81;2102842;28;20055;-69